sensor_id;sensor_type;location;lat;lon;timestamp;temperature;humidity
26579;DHT22;14227;47.674;19.320;2023-06-10T00:00:02;15.30;99.90
26579;DHT22;14227;47.674;19.320;2023-06-10T00:02:30;15.40;99.90
26579;DHT22;14227;47.674;19.320;2023-06-10T00:04:56;15.20;99.90
26579;DHT22;14227;47.674;19.320;2023-06-10T00:07:22;15.30;99.90
26579;DHT22;14227;47.674;19.320;2023-06-10T00:09:48;15.30;99.40
26579;DHT22;14227;47.674;19.320;2023-06-10T00:12:14;15.20;98.70
26579;DHT22;14227;47.674;19.320;2023-06-10T00:14:40;15.20;98.20
26579;DHT22;14227;47.674;19.320;2023-06-10T00:17:08;15.10;97.60
26579;DHT22;14227;47.674;19.320;2023-06-10T00:19:34;15.10;97.60
26579;DHT22;14227;47.674;19.320;2023-06-10T00:22:00;15.00;97.50
26579;DHT22;14227;47.674;19.320;2023-06-10T00:24:26;15.00;97.40
26579;DHT22;14227;47.674;19.320;2023-06-10T00:26:52;14.90;97.30
26579;DHT22;14227;47.674;19.320;2023-06-10T00:29:17;14.80;97.20
26579;DHT22;14227;47.674;19.320;2023-06-10T00:31:45;14.80;97.20
26579;DHT22;14227;47.674;19.320;2023-06-10T00:34:11;14.70;97.10
26579;DHT22;14227;47.674;19.320;2023-06-10T00:36:37;14.70;96.90
26579;DHT22;14227;47.674;19.320;2023-06-10T00:39:03;14.60;97.40
26579;DHT22;14227;47.674;19.320;2023-06-10T00:41:37;14.60;98.60
26579;DHT22;14227;47.674;19.320;2023-06-10T00:44:03;14.60;99.60
26579;DHT22;14227;47.674;19.320;2023-06-10T00:46:29;14.60;99.90
26579;DHT22;14227;47.674;19.320;2023-06-10T00:48:57;14.70;99.90
26579;DHT22;14227;47.674;19.320;2023-06-10T00:51:23;14.60;99.90
26579;DHT22;14227;47.674;19.320;2023-06-10T00:53:49;14.70;99.90
26579;DHT22;14227;47.674;19.320;2023-06-10T00:56:15;14.90;99.90
26579;DHT22;14227;47.674;19.320;2023-06-10T00:58:41;14.90;99.90
26579;DHT22;14227;47.674;19.320;2023-06-10T01:01:07;14.90;99.90
26579;DHT22;14227;47.674;19.320;2023-06-10T01:03:36;15.00;99.90
26579;DHT22;14227;47.674;19.320;2023-06-10T01:06:14;15.00;99.90
26579;DHT22;14227;47.674;19.320;2023-06-10T01:09:11;15.10;99.90
26579;DHT22;14227;47.674;19.320;2023-06-10T01:11:47;15.10;99.90
26579;DHT22;14227;47.674;19.320;2023-06-10T01:14:14;15.10;99.90
26579;DHT22;14227;47.674;19.320;2023-06-10T01:16:43;15.10;99.90
26579;DHT22;14227;47.674;19.320;2023-06-10T01:19:11;15.20;99.90
26579;DHT22;14227;47.674;19.320;2023-06-10T01:21:38;15.20;99.90
26579;DHT22;14227;47.674;19.320;2023-06-10T01:24:05;15.20;99.90
26579;DHT22;14227;47.674;19.320;2023-06-10T01:26:37;15.20;99.90
26579;DHT22;14227;47.674;19.320;2023-06-10T01:29:14;15.20;99.90
26579;DHT22;14227;47.674;19.320;2023-06-10T01:32:03;15.20;99.90
26579;DHT22;14227;47.674;19.320;2023-06-10T01:34:31;15.30;99.90
26579;DHT22;14227;47.674;19.320;2023-06-10T01:36:58;15.30;99.90
26579;DHT22;14227;47.674;19.320;2023-06-10T01:39:24;15.30;99.90
26579;DHT22;14227;47.674;19.320;2023-06-10T01:41:52;15.30;99.90
26579;DHT22;14227;47.674;19.320;2023-06-10T01:44:21;15.30;99.90
26579;DHT22;14227;47.674;19.320;2023-06-10T01:46:47;15.30;99.90
26579;DHT22;14227;47.674;19.320;2023-06-10T01:49:13;15.40;99.90
26579;DHT22;14227;47.674;19.320;2023-06-10T01:51:39;15.30;99.90
26579;DHT22;14227;47.674;19.320;2023-06-10T01:54:05;15.30;99.90
26579;DHT22;14227;47.674;19.320;2023-06-10T01:56:32;15.30;99.70
26579;DHT22;14227;47.674;19.320;2023-06-10T01:58:58;15.20;99.30
26579;DHT22;14227;47.674;19.320;2023-06-10T02:01:29;15.10;98.80
26579;DHT22;14227;47.674;19.320;2023-06-10T02:03:55;15.10;98.50
26579;DHT22;14227;47.674;19.320;2023-06-10T02:06:21;15.10;98.50
26579;DHT22;14227;47.674;19.320;2023-06-10T02:08:47;14.90;98.20
26579;DHT22;14227;47.674;19.320;2023-06-10T02:11:12;14.90;98.00
26579;DHT22;14227;47.674;19.320;2023-06-10T02:13:39;14.80;97.60
26579;DHT22;14227;47.674;19.320;2023-06-10T02:16:04;14.80;97.20
26579;DHT22;14227;47.674;19.320;2023-06-10T02:18:34;14.70;96.90
26579;DHT22;14227;47.674;19.320;2023-06-10T02:21:00;14.60;97.30
26579;DHT22;14227;47.674;19.320;2023-06-10T02:23:25;14.60;97.70
26579;DHT22;14227;47.674;19.320;2023-06-10T02:25:51;14.60;97.80
26579;DHT22;14227;47.674;19.320;2023-06-10T02:28:17;14.50;98.10
26579;DHT22;14227;47.674;19.320;2023-06-10T02:30:42;14.50;98.60
26579;DHT22;14227;47.674;19.320;2023-06-10T02:33:08;14.50;98.90
26579;DHT22;14227;47.674;19.320;2023-06-10T02:35:41;14.50;99.00
26579;DHT22;14227;47.674;19.320;2023-06-10T02:38:06;14.50;99.20
26579;DHT22;14227;47.674;19.320;2023-06-10T02:40:32;14.50;99.40
26579;DHT22;14227;47.674;19.320;2023-06-10T02:42:58;14.50;99.60
26579;DHT22;14227;47.674;19.320;2023-06-10T02:45:33;14.50;99.80
26579;DHT22;14227;47.674;19.320;2023-06-10T02:47:59;14.50;99.70
26579;DHT22;14227;47.674;19.320;2023-06-10T02:50:24;14.50;99.80
26579;DHT22;14227;47.674;19.320;2023-06-10T02:52:50;14.50;99.90
26579;DHT22;14227;47.674;19.320;2023-06-10T02:55:16;14.50;99.90
26579;DHT22;14227;47.674;19.320;2023-06-10T02:57:42;14.40;99.50
26579;DHT22;14227;47.674;19.320;2023-06-10T03:00:08;14.50;99.40
26579;DHT22;14227;47.674;19.320;2023-06-10T03:02:37;14.50;99.30
26579;DHT22;14227;47.674;19.320;2023-06-10T03:05:05;14.50;99.50
26579;DHT22;14227;47.674;19.320;2023-06-10T03:07:31;14.40;99.90
26579;DHT22;14227;47.674;19.320;2023-06-10T03:09:57;14.40;99.90
26579;DHT22;14227;47.674;19.320;2023-06-10T03:12:23;14.40;99.90
26579;DHT22;14227;47.674;19.320;2023-06-10T03:14:48;14.50;99.90
26579;DHT22;14227;47.674;19.320;2023-06-10T03:17:14;14.50;99.90
26579;DHT22;14227;47.674;19.320;2023-06-10T03:19:40;14.50;99.90
26579;DHT22;14227;47.674;19.320;2023-06-10T03:22:13;14.60;99.90
26579;DHT22;14227;47.674;19.320;2023-06-10T03:24:40;14.60;99.90
26579;DHT22;14227;47.674;19.320;2023-06-10T03:27:07;14.60;99.90
26579;DHT22;14227;47.674;19.320;2023-06-10T03:29:33;14.70;99.90
26579;DHT22;14227;47.674;19.320;2023-06-10T03:31:59;14.80;99.90
26579;DHT22;14227;47.674;19.320;2023-06-10T03:34:25;14.90;99.90
26579;DHT22;14227;47.674;19.320;2023-06-10T03:36:51;15.00;99.90
26579;DHT22;14227;47.674;19.320;2023-06-10T03:39:16;15.00;99.90
26579;DHT22;14227;47.674;19.320;2023-06-10T03:41:42;15.10;99.90
26579;DHT22;14227;47.674;19.320;2023-06-10T03:44:08;15.20;99.90
26579;DHT22;14227;47.674;19.320;2023-06-10T03:46:33;15.30;99.90
26579;DHT22;14227;47.674;19.320;2023-06-10T03:48:59;15.50;99.90
26579;DHT22;14227;47.674;19.320;2023-06-10T03:51:26;15.60;99.90
26579;DHT22;14227;47.674;19.320;2023-06-10T03:53:52;15.70;99.90
26579;DHT22;14227;47.674;19.320;2023-06-10T03:56:18;15.80;99.90
26579;DHT22;14227;47.674;19.320;2023-06-10T03:58:43;15.90;99.90
26579;DHT22;14227;47.674;19.320;2023-06-10T04:01:10;16.00;99.90
26579;DHT22;14227;47.674;19.320;2023-06-10T04:03:37;16.10;99.90
26579;DHT22;14227;47.674;19.320;2023-06-10T04:06:05;16.30;99.90
26579;DHT22;14227;47.674;19.320;2023-06-10T04:08:30;16.40;99.90
26579;DHT22;14227;47.674;19.320;2023-06-10T04:10:58;16.50;99.90
26579;DHT22;14227;47.674;19.320;2023-06-10T04:13:24;16.70;99.90
26579;DHT22;14227;47.674;19.320;2023-06-10T04:15:50;16.80;99.90
26579;DHT22;14227;47.674;19.320;2023-06-10T04:18:16;16.90;99.90
26579;DHT22;14227;47.674;19.320;2023-06-10T04:20:42;17.00;99.90
26579;DHT22;14227;47.674;19.320;2023-06-10T04:23:08;17.20;99.90
26579;DHT22;14227;47.674;19.320;2023-06-10T04:25:34;17.30;99.90
26579;DHT22;14227;47.674;19.320;2023-06-10T04:28:00;17.50;99.90
26579;DHT22;14227;47.674;19.320;2023-06-10T04:30:25;17.60;99.90
26579;DHT22;14227;47.674;19.320;2023-06-10T04:32:51;17.70;99.90
26579;DHT22;14227;47.674;19.320;2023-06-10T04:35:17;17.80;99.90
26579;DHT22;14227;47.674;19.320;2023-06-10T04:37:43;17.90;99.90
26579;DHT22;14227;47.674;19.320;2023-06-10T04:40:09;18.00;99.90
26579;DHT22;14227;47.674;19.320;2023-06-10T04:42:36;18.20;99.90
26579;DHT22;14227;47.674;19.320;2023-06-10T04:45:02;18.30;99.90
26579;DHT22;14227;47.674;19.320;2023-06-10T04:47:29;18.40;99.90
26579;DHT22;14227;47.674;19.320;2023-06-10T04:49:59;18.60;99.90
26579;DHT22;14227;47.674;19.320;2023-06-10T04:52:25;18.70;99.90
26579;DHT22;14227;47.674;19.320;2023-06-10T04:54:51;18.80;99.90
26579;DHT22;14227;47.674;19.320;2023-06-10T04:57:16;18.90;99.90
26579;DHT22;14227;47.674;19.320;2023-06-10T04:59:42;19.00;99.90
26579;DHT22;14227;47.674;19.320;2023-06-10T05:02:08;19.10;99.90
26579;DHT22;14227;47.674;19.320;2023-06-10T05:04:33;19.20;99.90
26579;DHT22;14227;47.674;19.320;2023-06-10T05:06:59;19.40;99.90
26579;DHT22;14227;47.674;19.320;2023-06-10T05:09:25;19.50;99.90
26579;DHT22;14227;47.674;19.320;2023-06-10T05:11:51;19.60;99.90
26579;DHT22;14227;47.674;19.320;2023-06-10T05:14:19;19.70;99.90
26579;DHT22;14227;47.674;19.320;2023-06-10T05:16:46;19.80;99.90
26579;DHT22;14227;47.674;19.320;2023-06-10T05:19:12;19.90;99.90
26579;DHT22;14227;47.674;19.320;2023-06-10T05:21:37;20.00;99.90
26579;DHT22;14227;47.674;19.320;2023-06-10T05:24:03;20.10;99.90
26579;DHT22;14227;47.674;19.320;2023-06-10T05:26:29;20.20;99.90
26579;DHT22;14227;47.674;19.320;2023-06-10T05:28:57;20.30;99.90
26579;DHT22;14227;47.674;19.320;2023-06-10T05:31:24;20.40;99.90
26579;DHT22;14227;47.674;19.320;2023-06-10T05:33:49;20.50;99.90
26579;DHT22;14227;47.674;19.320;2023-06-10T05:36:15;20.60;99.90
26579;DHT22;14227;47.674;19.320;2023-06-10T05:41:09;20.70;99.90
26579;DHT22;14227;47.674;19.320;2023-06-10T05:43:35;20.80;99.90
26579;DHT22;14227;47.674;19.320;2023-06-10T05:46:01;20.90;99.90
26579;DHT22;14227;47.674;19.320;2023-06-10T05:51:03;21.00;99.90
26579;DHT22;14227;47.674;19.320;2023-06-10T05:53:28;21.10;99.90
26579;DHT22;14227;47.674;19.320;2023-06-10T05:55:56;21.20;99.90
26579;DHT22;14227;47.674;19.320;2023-06-10T05:58:23;21.20;99.90
26579;DHT22;14227;47.674;19.320;2023-06-10T06:00:49;21.30;99.90
26579;DHT22;14227;47.674;19.320;2023-06-10T06:03:19;21.40;99.90
26579;DHT22;14227;47.674;19.320;2023-06-10T06:08:13;21.50;99.90
26579;DHT22;14227;47.674;19.320;2023-06-10T06:10:39;21.50;99.90
26579;DHT22;14227;47.674;19.320;2023-06-10T06:13:06;21.50;99.90
26579;DHT22;14227;47.674;19.320;2023-06-10T06:15:37;21.60;99.90
26579;DHT22;14227;47.674;19.320;2023-06-10T06:18:02;21.80;99.90
26579;DHT22;14227;47.674;19.320;2023-06-10T06:20:28;21.90;99.90
26579;DHT22;14227;47.674;19.320;2023-06-10T06:22:54;22.00;99.90
26579;DHT22;14227;47.674;19.320;2023-06-10T06:25:20;22.20;99.90
26579;DHT22;14227;47.674;19.320;2023-06-10T06:27:45;22.30;99.90
26579;DHT22;14227;47.674;19.320;2023-06-10T06:30:11;22.40;99.90
26579;DHT22;14227;47.674;19.320;2023-06-10T06:32:37;22.60;99.90
26579;DHT22;14227;47.674;19.320;2023-06-10T06:35:03;22.80;99.90
26579;DHT22;14227;47.674;19.320;2023-06-10T06:37:31;22.90;99.90
26579;DHT22;14227;47.674;19.320;2023-06-10T06:39:58;23.10;99.90
26579;DHT22;14227;47.674;19.320;2023-06-10T06:42:27;23.40;99.90
26579;DHT22;14227;47.674;19.320;2023-06-10T06:44:52;23.60;99.90
26579;DHT22;14227;47.674;19.320;2023-06-10T06:47:18;23.90;99.90
26579;DHT22;14227;47.674;19.320;2023-06-10T06:49:46;24.60;99.90
26579;DHT22;14227;47.674;19.320;2023-06-10T06:52:12;25.10;99.90
26579;DHT22;14227;47.674;19.320;2023-06-10T06:54:40;25.50;99.90
26579;DHT22;14227;47.674;19.320;2023-06-10T06:57:07;26.00;99.90
26579;DHT22;14227;47.674;19.320;2023-06-10T06:59:33;26.40;99.90
26579;DHT22;14227;47.674;19.320;2023-06-10T07:01:59;26.50;99.90
26579;DHT22;14227;47.674;19.320;2023-06-10T07:04:25;26.50;99.90
26579;DHT22;14227;47.674;19.320;2023-06-10T07:06:51;26.70;99.90
26579;DHT22;14227;47.674;19.320;2023-06-10T07:09:16;26.80;99.90
26579;DHT22;14227;47.674;19.320;2023-06-10T07:11:42;26.80;99.90
26579;DHT22;14227;47.674;19.320;2023-06-10T07:14:08;26.70;99.90
26579;DHT22;14227;47.674;19.320;2023-06-10T07:16:34;26.70;99.90
26579;DHT22;14227;47.674;19.320;2023-06-10T07:19:00;26.70;99.90
26579;DHT22;14227;47.674;19.320;2023-06-10T07:21:25;26.80;99.90
26579;DHT22;14227;47.674;19.320;2023-06-10T07:23:51;27.00;99.90
26579;DHT22;14227;47.674;19.320;2023-06-10T07:26:19;26.90;99.90
26579;DHT22;14227;47.674;19.320;2023-06-10T07:28:45;26.90;99.90
26579;DHT22;14227;47.674;19.320;2023-06-10T07:33:40;27.20;99.90
26579;DHT22;14227;47.674;19.320;2023-06-10T07:36:07;27.50;99.90
26579;DHT22;14227;47.674;19.320;2023-06-10T07:38:33;27.70;99.90
26579;DHT22;14227;47.674;19.320;2023-06-10T07:40:59;27.90;99.90
26579;DHT22;14227;47.674;19.320;2023-06-10T07:43:25;27.90;99.90
26579;DHT22;14227;47.674;19.320;2023-06-10T07:45:51;28.20;99.90
26579;DHT22;14227;47.674;19.320;2023-06-10T07:48:16;28.60;99.90
26579;DHT22;14227;47.674;19.320;2023-06-10T07:50:42;29.10;99.90
26579;DHT22;14227;47.674;19.320;2023-06-10T07:53:08;29.40;99.90
26579;DHT22;14227;47.674;19.320;2023-06-10T07:55:33;29.60;99.90
26579;DHT22;14227;47.674;19.320;2023-06-10T07:57:59;29.70;99.90
26579;DHT22;14227;47.674;19.320;2023-06-10T08:00:25;29.80;99.90
26579;DHT22;14227;47.674;19.320;2023-06-10T08:02:53;30.00;99.90
26579;DHT22;14227;47.674;19.320;2023-06-10T08:05:19;30.50;99.90
26579;DHT22;14227;47.674;19.320;2023-06-10T08:07:48;31.00;99.90
26579;DHT22;14227;47.674;19.320;2023-06-10T08:10:14;31.50;99.90
26579;DHT22;14227;47.674;19.320;2023-06-10T08:12:43;32.10;99.90
26579;DHT22;14227;47.674;19.320;2023-06-10T08:15:09;32.30;99.90
26579;DHT22;14227;47.674;19.320;2023-06-10T08:17:35;32.20;99.90
26579;DHT22;14227;47.674;19.320;2023-06-10T08:25:34;31.70;95.80
26579;DHT22;14227;47.674;19.320;2023-06-10T08:28:01;31.50;87.80
26579;DHT22;14227;47.674;19.320;2023-06-10T08:30:26;31.30;91.30
26579;DHT22;14227;47.674;19.320;2023-06-10T08:32:52;31.10;95.20
26579;DHT22;14227;47.674;19.320;2023-06-10T08:35:18;31.10;99.90
26579;DHT22;14227;47.674;19.320;2023-06-10T08:37:44;31.20;99.90
26579;DHT22;14227;47.674;19.320;2023-06-10T08:40:10;31.60;99.90
26579;DHT22;14227;47.674;19.320;2023-06-10T08:42:41;32.00;99.90
26579;DHT22;14227;47.674;19.320;2023-06-10T08:45:14;32.30;99.90
26579;DHT22;14227;47.674;19.320;2023-06-10T08:47:44;32.60;99.90
26579;DHT22;14227;47.674;19.320;2023-06-10T08:50:10;32.80;99.90
26579;DHT22;14227;47.674;19.320;2023-06-10T08:52:41;32.90;99.90
26579;DHT22;14227;47.674;19.320;2023-06-10T08:55:18;33.00;99.90
26579;DHT22;14227;47.674;19.320;2023-06-10T08:57:48;33.00;93.80
26579;DHT22;14227;47.674;19.320;2023-06-10T09:00:28;32.80;93.30
26579;DHT22;14227;47.674;19.320;2023-06-10T09:05:22;32.60;93.30
26579;DHT22;14227;47.674;19.320;2023-06-10T09:07:49;32.40;95.30
26579;DHT22;14227;47.674;19.320;2023-06-10T09:10:16;32.40;93.90
26579;DHT22;14227;47.674;19.320;2023-06-10T09:12:42;32.30;96.40
26579;DHT22;14227;47.674;19.320;2023-06-10T09:15:08;32.20;96.50
26579;DHT22;14227;47.674;19.320;2023-06-10T09:17:34;32.30;99.90
26579;DHT22;14227;47.674;19.320;2023-06-10T09:20:02;32.40;96.90
26579;DHT22;14227;47.674;19.320;2023-06-10T09:22:28;32.40;88.40
26579;DHT22;14227;47.674;19.320;2023-06-10T09:25:10;32.30;75.90
26579;DHT22;14227;47.674;19.320;2023-06-10T09:27:51;32.20;86.00
26579;DHT22;14227;47.674;19.320;2023-06-10T09:30:30;32.30;92.30
26579;DHT22;14227;47.674;19.320;2023-06-10T09:32:58;32.30;90.30
26579;DHT22;14227;47.674;19.320;2023-06-10T09:35:29;32.20;90.60
26579;DHT22;14227;47.674;19.320;2023-06-10T09:37:57;31.80;84.30
26579;DHT22;14227;47.674;19.320;2023-06-10T09:40:23;31.70;90.60
26579;DHT22;14227;47.674;19.320;2023-06-10T09:42:59;31.40;82.10
26579;DHT22;14227;47.674;19.320;2023-06-10T09:45:33;31.10;88.00
26579;DHT22;14227;47.674;19.320;2023-06-10T09:50:27;30.70;88.40
26579;DHT22;14227;47.674;19.320;2023-06-10T09:52:56;30.60;91.80
26579;DHT22;14227;47.674;19.320;2023-06-10T09:57:53;30.40;92.20
26579;DHT22;14227;47.674;19.320;2023-06-10T10:02:54;30.30;92.00
26579;DHT22;14227;47.674;19.320;2023-06-10T10:05:22;30.40;83.00
26579;DHT22;14227;47.674;19.320;2023-06-10T10:07:48;30.40;95.00
26579;DHT22;14227;47.674;19.320;2023-06-10T10:10:18;30.70;99.90
26579;DHT22;14227;47.674;19.320;2023-06-10T10:12:46;30.70;94.90
26579;DHT22;14227;47.674;19.320;2023-06-10T10:15:12;30.80;91.10
26579;DHT22;14227;47.674;19.320;2023-06-10T10:17:43;31.00;99.10
26579;DHT22;14227;47.674;19.320;2023-06-10T10:20:13;31.20;99.90
26579;DHT22;14227;47.674;19.320;2023-06-10T10:22:41;31.50;99.90
26579;DHT22;14227;47.674;19.320;2023-06-10T10:25:11;31.90;99.90
26579;DHT22;14227;47.674;19.320;2023-06-10T10:27:48;32.30;99.90
26579;DHT22;14227;47.674;19.320;2023-06-10T10:30:18;33.10;99.90
26579;DHT22;14227;47.674;19.320;2023-06-10T10:33:04;33.80;99.90
26579;DHT22;14227;47.674;19.320;2023-06-10T10:35:31;34.30;93.80
26579;DHT22;14227;47.674;19.320;2023-06-10T10:38:02;34.60;99.90
26579;DHT22;14227;47.674;19.320;2023-06-10T10:40:29;34.80;98.60
26579;DHT22;14227;47.674;19.320;2023-06-10T10:42:58;35.00;99.90
26579;DHT22;14227;47.674;19.320;2023-06-10T10:45:27;35.20;93.80
26579;DHT22;14227;47.674;19.320;2023-06-10T10:47:54;35.30;98.20
26579;DHT22;14227;47.674;19.320;2023-06-10T10:50:22;35.50;97.80
26579;DHT22;14227;47.674;19.320;2023-06-10T10:52:56;35.60;99.00
26579;DHT22;14227;47.674;19.320;2023-06-10T10:55:26;35.90;97.00
26579;DHT22;14227;47.674;19.320;2023-06-10T10:58:02;36.00;94.80
26579;DHT22;14227;47.674;19.320;2023-06-10T11:00:34;36.20;94.20
26579;DHT22;14227;47.674;19.320;2023-06-10T11:03:07;36.20;88.90
26579;DHT22;14227;47.674;19.320;2023-06-10T11:05:41;36.30;90.00
26579;DHT22;14227;47.674;19.320;2023-06-10T11:08:10;36.40;91.40
26579;DHT22;14227;47.674;19.320;2023-06-10T11:10:38;36.50;82.00
26579;DHT22;14227;47.674;19.320;2023-06-10T11:13:14;36.50;87.10
26579;DHT22;14227;47.674;19.320;2023-06-10T11:15:50;36.70;92.20
26579;DHT22;14227;47.674;19.320;2023-06-10T11:18:26;36.80;74.00
26579;DHT22;14227;47.674;19.320;2023-06-10T11:20:56;36.80;77.20
26579;DHT22;14227;47.674;19.320;2023-06-10T11:31:25;36.50;81.30
26579;DHT22;14227;47.674;19.320;2023-06-10T11:33:56;36.50;89.70
26579;DHT22;14227;47.674;19.320;2023-06-10T11:36:22;36.60;74.20
26579;DHT22;14227;47.674;19.320;2023-06-10T11:38:49;36.30;72.50
26579;DHT22;14227;47.674;19.320;2023-06-10T11:41:17;36.20;88.40
26579;DHT22;14227;47.674;19.320;2023-06-10T11:43:44;36.30;89.10
26579;DHT22;14227;47.674;19.320;2023-06-10T11:46:11;36.50;90.30
26579;DHT22;14227;47.674;19.320;2023-06-10T11:48:36;36.80;95.20
26579;DHT22;14227;47.674;19.320;2023-06-10T11:51:09;37.30;99.60
26579;DHT22;14227;47.674;19.320;2023-06-10T11:53:35;37.80;95.50
26579;DHT22;14227;47.674;19.320;2023-06-10T11:56:00;38.00;91.10
26579;DHT22;14227;47.674;19.320;2023-06-10T11:58:26;38.10;71.30
26579;DHT22;14227;47.674;19.320;2023-06-10T12:00:55;38.00;67.00
26579;DHT22;14227;47.674;19.320;2023-06-10T12:03:24;37.70;63.40
26579;DHT22;14227;47.674;19.320;2023-06-10T12:05:58;37.30;72.90
26579;DHT22;14227;47.674;19.320;2023-06-10T12:08:25;37.00;73.00
26579;DHT22;14227;47.674;19.320;2023-06-10T12:10:51;36.60;71.50
26579;DHT22;14227;47.674;19.320;2023-06-10T12:13:17;36.40;78.20
26579;DHT22;14227;47.674;19.320;2023-06-10T12:15:46;36.40;79.00
26579;DHT22;14227;47.674;19.320;2023-06-10T12:18:24;36.60;86.80
26579;DHT22;14227;47.674;19.320;2023-06-10T12:20:50;36.80;74.80
26579;DHT22;14227;47.674;19.320;2023-06-10T12:23:17;36.90;82.30
26579;DHT22;14227;47.674;19.320;2023-06-10T12:25:55;37.20;85.80
26579;DHT22;14227;47.674;19.320;2023-06-10T12:28:22;37.60;90.00
26579;DHT22;14227;47.674;19.320;2023-06-10T12:30:48;37.90;90.00
26579;DHT22;14227;47.674;19.320;2023-06-10T12:33:21;38.20;88.30
26579;DHT22;14227;47.674;19.320;2023-06-10T12:35:48;38.30;81.80
26579;DHT22;14227;47.674;19.320;2023-06-10T12:38:14;38.20;80.80
26579;DHT22;14227;47.674;19.320;2023-06-10T12:40:47;37.60;67.50
26579;DHT22;14227;47.674;19.320;2023-06-10T12:43:13;36.20;54.60
26579;DHT22;14227;47.674;19.320;2023-06-10T12:45:45;34.30;56.30
26579;DHT22;14227;47.674;19.320;2023-06-10T12:48:22;32.70;62.80
26579;DHT22;14227;47.674;19.320;2023-06-10T12:50:56;31.60;69.30
26579;DHT22;14227;47.674;19.320;2023-06-10T12:53:23;30.90;71.60
26579;DHT22;14227;47.674;19.320;2023-06-10T12:55:49;30.30;79.50
26579;DHT22;14227;47.674;19.320;2023-06-10T12:58:15;29.80;82.50
26579;DHT22;14227;47.674;19.320;2023-06-10T13:00:41;29.40;82.30
26579;DHT22;14227;47.674;19.320;2023-06-10T13:03:12;29.00;77.20
26579;DHT22;14227;47.674;19.320;2023-06-10T13:05:38;28.70;90.70
26579;DHT22;14227;47.674;19.320;2023-06-10T13:08:08;28.50;93.40
26579;DHT22;14227;47.674;19.320;2023-06-10T13:13:07;28.40;96.00
26579;DHT22;14227;47.674;19.320;2023-06-10T13:15:35;28.40;99.30
26579;DHT22;14227;47.674;19.320;2023-06-10T13:18:04;28.50;99.90
26579;DHT22;14227;47.674;19.320;2023-06-10T13:20:30;28.60;99.90
26579;DHT22;14227;47.674;19.320;2023-06-10T13:22:56;28.80;99.90
26579;DHT22;14227;47.674;19.320;2023-06-10T13:25:22;28.90;99.90
26579;DHT22;14227;47.674;19.320;2023-06-10T13:27:48;29.10;99.90
26579;DHT22;14227;47.674;19.320;2023-06-10T13:30:14;29.70;99.90
26579;DHT22;14227;47.674;19.320;2023-06-10T13:32:40;30.20;99.90
26579;DHT22;14227;47.674;19.320;2023-06-10T13:35:06;30.80;99.90
26579;DHT22;14227;47.674;19.320;2023-06-10T13:37:33;31.60;99.90
26579;DHT22;14227;47.674;19.320;2023-06-10T13:39:59;32.20;99.90
26579;DHT22;14227;47.674;19.320;2023-06-10T13:42:25;32.80;99.90
26579;DHT22;14227;47.674;19.320;2023-06-10T13:44:51;33.10;96.40
26579;DHT22;14227;47.674;19.320;2023-06-10T13:47:17;33.30;79.10
26579;DHT22;14227;47.674;19.320;2023-06-10T13:49:43;33.50;98.00
26579;DHT22;14227;47.674;19.320;2023-06-10T13:52:09;33.80;91.80
26579;DHT22;14227;47.674;19.320;2023-06-10T13:54:34;34.10;74.50
26579;DHT22;14227;47.674;19.320;2023-06-10T13:57:03;34.30;81.80
26579;DHT22;14227;47.674;19.320;2023-06-10T13:59:29;34.30;70.00
26579;DHT22;14227;47.674;19.320;2023-06-10T14:01:56;34.10;71.30
26579;DHT22;14227;47.674;19.320;2023-06-10T14:04:22;34.00;69.80
26579;DHT22;14227;47.674;19.320;2023-06-10T14:06:48;34.10;79.50
26579;DHT22;14227;47.674;19.320;2023-06-10T14:09:14;34.10;70.70
26579;DHT22;14227;47.674;19.320;2023-06-10T14:11:39;33.90;60.30
26579;DHT22;14227;47.674;19.320;2023-06-10T14:14:05;33.60;59.60
26579;DHT22;14227;47.674;19.320;2023-06-10T14:16:31;33.00;60.20
26579;DHT22;14227;47.674;19.320;2023-06-10T14:18:57;32.30;52.90
26579;DHT22;14227;47.674;19.320;2023-06-10T14:21:23;31.50;53.60
26579;DHT22;14227;47.674;19.320;2023-06-10T14:23:48;30.70;54.90
26579;DHT22;14227;47.674;19.320;2023-06-10T14:26:15;29.80;54.80
26579;DHT22;14227;47.674;19.320;2023-06-10T14:28:41;28.90;55.70
26579;DHT22;14227;47.674;19.320;2023-06-10T14:31:07;28.00;62.30
26579;DHT22;14227;47.674;19.320;2023-06-10T14:33:33;27.10;61.70
26579;DHT22;14227;47.674;19.320;2023-06-10T14:35:59;26.10;65.10
26579;DHT22;14227;47.674;19.320;2023-06-10T14:38:25;25.40;71.70
26579;DHT22;14227;47.674;19.320;2023-06-10T14:40:51;24.90;77.70
26579;DHT22;14227;47.674;19.320;2023-06-10T14:43:17;24.30;76.80
26579;DHT22;14227;47.674;19.320;2023-06-10T14:45:43;23.80;80.40
26579;DHT22;14227;47.674;19.320;2023-06-10T14:48:10;23.40;83.00
26579;DHT22;14227;47.674;19.320;2023-06-10T14:50:36;23.10;88.40
26579;DHT22;14227;47.674;19.320;2023-06-10T14:53:02;22.90;91.20
26579;DHT22;14227;47.674;19.320;2023-06-10T14:55:28;22.80;91.20
26579;DHT22;14227;47.674;19.320;2023-06-10T14:57:54;22.70;91.80
26579;DHT22;14227;47.674;19.320;2023-06-10T15:00:21;22.60;93.20
26579;DHT22;14227;47.674;19.320;2023-06-10T15:02:49;22.50;93.90
26579;DHT22;14227;47.674;19.320;2023-06-10T15:05:15;22.40;95.10
26579;DHT22;14227;47.674;19.320;2023-06-10T15:07:42;22.50;96.80
26579;DHT22;14227;47.674;19.320;2023-06-10T15:10:09;22.50;96.90
26579;DHT22;14227;47.674;19.320;2023-06-10T15:12:35;22.50;96.20
26579;DHT22;14227;47.674;19.320;2023-06-10T15:15:01;22.50;96.90
26579;DHT22;14227;47.674;19.320;2023-06-10T15:17:27;22.40;96.50
26579;DHT22;14227;47.674;19.320;2023-06-10T15:19:54;22.50;98.50
26579;DHT22;14227;47.674;19.320;2023-06-10T15:22:22;22.60;99.90
26579;DHT22;14227;47.674;19.320;2023-06-10T15:24:48;22.70;99.90
26579;DHT22;14227;47.674;19.320;2023-06-10T15:27:33;22.70;99.90
26579;DHT22;14227;47.674;19.320;2023-06-10T15:29:59;22.80;99.90
26579;DHT22;14227;47.674;19.320;2023-06-10T15:35:00;22.80;98.40
26579;DHT22;14227;47.674;19.320;2023-06-10T15:37:59;22.80;97.60
26579;DHT22;14227;47.674;19.320;2023-06-10T15:42:56;22.80;98.70
26579;DHT22;14227;47.674;19.320;2023-06-10T15:45:22;22.80;98.10
26579;DHT22;14227;47.674;19.320;2023-06-10T15:47:48;22.70;98.40
26579;DHT22;14227;47.674;19.320;2023-06-10T15:50:14;22.70;98.40
26579;DHT22;14227;47.674;19.320;2023-06-10T15:52:42;22.60;98.20
26579;DHT22;14227;47.674;19.320;2023-06-10T15:55:08;22.60;97.90
26579;DHT22;14227;47.674;19.320;2023-06-10T15:57:34;22.60;98.30